createdAt,value
2018-05-12T00:00:11.558Z,87.23
2018-05-12T00:00:52.108Z,87.23
2018-05-12T00:01:32.685Z,86.85
2018-05-12T00:02:13.293Z,87.23
2018-05-12T00:02:53.876Z,86.94
2018-05-12T00:03:34.454Z,87.04
2018-05-12T00:04:15.056Z,86.85
2018-05-12T00:04:55.650Z,86.94
2018-05-12T00:05:36.204Z,86.85
2018-05-12T00:06:16.776Z,86.76
2018-05-12T00:06:57.352Z,87.14
2018-05-12T00:07:37.894Z,87.14
2018-05-12T00:08:18.467Z,87.14
2018-05-12T00:08:59.000Z,87.52
2018-05-12T00:09:39.562Z,87.33
2018-05-12T00:10:20.103Z,87.14
2018-05-12T00:11:00.646Z,87.33
2018-05-12T00:11:41.254Z,87.33
2018-05-12T00:12:21.824Z,87.33
2018-05-12T00:13:02.398Z,87.52
2018-05-12T00:13:42.980Z,87.04
2018-05-12T00:14:23.505Z,87.43
2018-05-12T00:15:04.152Z,87.52
2018-05-12T00:15:44.695Z,86.94
2018-05-12T00:16:25.254Z,87.33
2018-05-12T00:17:05.805Z,86.85
2018-05-12T00:17:46.380Z,87.33
2018-05-12T00:18:26.930Z,86.57
2018-05-12T00:19:07.485Z,86.85
2018-05-12T00:19:48.053Z,86.85
2018-05-12T00:20:28.676Z,86.94
2018-05-12T00:21:09.189Z,86.85
2018-05-12T00:21:49.739Z,86.57
2018-05-12T00:22:30.307Z,87.04
2018-05-12T00:23:10.865Z,86.94
2018-05-12T00:23:51.429Z,87.04
2018-05-12T00:24:31.976Z,86.85
2018-05-12T00:25:12.531Z,86.76
2018-05-12T00:25:53.110Z,86.85
2018-05-12T00:26:33.709Z,86.94
2018-05-12T00:27:14.270Z,86.94
2018-05-12T00:27:54.835Z,87.33
2018-05-12T00:28:35.394Z,86.94
2018-05-12T00:29:15.920Z,87.14
2018-05-12T00:29:56.492Z,87.23
2018-05-12T00:30:37.069Z,87.52
2018-05-12T00:31:17.587Z,87.52
2018-05-12T00:31:58.153Z,87.52
2018-05-12T00:32:38.717Z,87.23
2018-05-12T00:33:19.273Z,87.52
2018-05-12T00:33:59.820Z,87.23
2018-05-12T00:34:40.371Z,87.52
2018-05-12T00:35:20.933Z,87.33
2018-05-12T00:36:01.504Z,87.52
2018-05-12T00:36:42.068Z,87.52
2018-05-12T00:37:22.640Z,87.52
2018-05-12T00:38:03.206Z,87.14
2018-05-12T00:38:43.779Z,87.23
2018-05-12T00:39:24.353Z,87.48
2018-05-12T00:40:04.924Z,87.23
2018-05-12T00:40:45.486Z,87.33
2018-05-12T00:41:26.047Z,87.38
2018-05-12T00:42:06.631Z,87.09
2018-05-12T00:42:47.197Z,87.29
2018-05-12T00:43:27.766Z,87.38
2018-05-12T00:44:08.351Z,86.71
2018-05-12T00:44:48.949Z,86.9
2018-05-12T00:45:29.523Z,87.48
2018-05-12T00:46:10.080Z,87.19
2018-05-12T00:46:50.651Z,87.19
2018-05-12T00:47:31.210Z,87.76
2018-05-12T00:48:11.785Z,87.66
2018-05-12T00:48:52.307Z,87.29
2018-05-12T00:49:32.852Z,87.57
2018-05-12T00:50:13.415Z,87.57
2018-05-12T00:50:53.975Z,87.76
2018-05-12T00:51:34.600Z,87.29
2018-05-12T00:52:15.092Z,87.29
2018-05-12T00:52:55.641Z,87.48
2018-05-12T00:53:36.212Z,87.38
2018-05-12T00:54:16.766Z,87.48
2018-05-12T00:54:57.332Z,87.48
2018-05-12T00:55:37.899Z,87.57
2018-05-12T00:56:18.492Z,87.76
2018-05-12T00:56:59.026Z,87.19
2018-05-12T00:57:39.603Z,87.48
2018-05-12T00:58:20.192Z,87.57
2018-05-12T00:59:00.736Z,86.8
2018-05-12T00:59:41.293Z,87.57
2018-05-12T01:00:21.842Z,87.62
2018-05-12T01:01:02.412Z,86.9
2018-05-12T01:01:42.966Z,87.38
2018-05-12T01:02:23.531Z,87.19
2018-05-12T01:03:04.103Z,87.76
2018-05-12T01:03:44.685Z,87.66
2018-05-12T01:04:25.259Z,87.66
2018-05-12T01:05:05.805Z,87.57
2018-05-12T01:05:46.407Z,87.29
2018-05-12T01:06:27.010Z,87.48
2018-05-12T01:07:07.586Z,87.48
2018-05-12T01:07:48.130Z,87.48
2018-05-12T01:08:28.708Z,87.57
2018-05-12T01:09:09.408Z,87.29
2018-05-12T01:09:49.971Z,87.66
2018-05-12T01:10:30.522Z,87.86
2018-05-12T01:11:11.101Z,87.76
2018-05-12T01:11:51.655Z,87.66
2018-05-12T01:12:32.211Z,87.57
2018-05-12T01:13:12.753Z,87.57
2018-05-12T01:13:53.300Z,87.66
2018-05-12T01:14:33.845Z,87.57
2018-05-12T01:15:14.397Z,87.86
2018-05-12T01:15:54.965Z,87.86
2018-05-12T01:16:35.532Z,87.86
2018-05-12T01:17:16.128Z,87.57
2018-05-12T01:17:56.699Z,87.57
2018-05-12T01:18:37.255Z,87.66
2018-05-12T01:19:17.816Z,87.57
2018-05-12T01:19:58.373Z,87.86
2018-05-12T01:20:38.942Z,88.05
2018-05-12T01:21:19.505Z,88.05
2018-05-12T01:22:00.077Z,87.86
2018-05-12T01:22:40.642Z,87.57
2018-05-12T01:23:21.215Z,87.48
2018-05-12T01:24:01.777Z,87.57
2018-05-12T01:24:42.338Z,87.66
2018-05-12T01:25:22.912Z,87.95
2018-05-12T01:26:03.465Z,87.66
2018-05-12T01:26:44.068Z,87.57
2018-05-12T01:27:24.637Z,88.34
2018-05-12T01:28:05.191Z,88.43
2018-05-12T01:28:45.747Z,88.24
2018-05-12T01:29:26.299Z,88.15
2018-05-12T01:30:06.888Z,88.62
2018-05-12T01:30:47.459Z,88.15
2018-05-12T01:31:28.022Z,88.15
2018-05-12T01:32:08.568Z,88.72
2018-05-12T01:32:49.143Z,88.15
2018-05-12T01:33:29.707Z,88.15
2018-05-12T01:34:10.274Z,88.15
2018-05-12T01:34:50.845Z,88.34
2018-05-12T01:35:31.411Z,87.76
2018-05-12T01:36:11.981Z,87.76
2018-05-12T01:36:52.539Z,87.76
2018-05-12T01:37:33.122Z,87.86
2018-05-12T01:38:13.695Z,87.95
2018-05-12T01:38:54.237Z,87.86
2018-05-12T01:39:34.800Z,87.86
2018-05-12T01:40:15.357Z,87.86
2018-05-12T01:40:55.924Z,87.86
2018-05-12T01:41:36.504Z,87.86
2018-05-12T01:42:17.071Z,87.76
2018-05-12T01:42:57.620Z,87.86
2018-05-12T01:43:38.180Z,87.95
2018-05-12T01:44:18.753Z,88.05
2018-05-12T01:44:59.346Z,88.15
2018-05-12T01:45:39.888Z,87.86
2018-05-12T01:46:20.440Z,87.57
2018-05-12T01:47:01.128Z,87.66
2018-05-12T01:47:41.636Z,87.57
2018-05-12T01:48:22.144Z,87.57
2018-05-12T01:49:02.740Z,87.66
2018-05-12T01:49:43.315Z,87.76
2018-05-12T01:50:23.913Z,87.76
2018-05-12T01:51:04.441Z,87.76
2018-05-12T01:51:44.995Z,87.76
2018-05-12T01:52:25.552Z,87.86
2018-05-12T01:53:06.122Z,87.86
2018-05-12T01:53:46.684Z,87.76
2018-05-12T01:54:27.264Z,87.86
2018-05-12T01:55:07.822Z,88.34
2018-05-12T01:55:48.401Z,88.24
2018-05-12T01:56:28.925Z,87.95
2018-05-12T01:57:09.500Z,88.24
2018-05-12T01:57:50.073Z,88.43
2018-05-12T01:58:30.642Z,88.15
2018-05-12T01:59:11.226Z,87.76
2018-05-12T01:59:51.733Z,87.76
2018-05-12T02:00:32.352Z,87.76
2018-05-12T02:01:12.893Z,87.76
2018-05-12T02:01:53.529Z,87.86
2018-05-12T02:02:34.164Z,88.15
2018-05-12T02:03:14.741Z,88.24
2018-05-12T02:03:55.300Z,88.43
2018-05-12T02:04:35.880Z,88.15
2018-05-12T02:05:16.507Z,88.34
2018-05-12T02:05:57.048Z,88.24
2018-05-12T02:06:37.616Z,88.53
2018-05-12T02:07:18.199Z,88.62
2018-05-12T02:07:58.740Z,88.43
2018-05-12T02:08:39.317Z,88.72
2018-05-12T02:09:19.906Z,88.34
2018-05-12T02:10:00.450Z,88.62
2018-05-12T02:10:41.008Z,88.72
2018-05-12T02:11:21.547Z,88.24
2018-05-12T02:12:02.135Z,88.43
2018-05-12T02:12:42.704Z,88.43
2018-05-12T02:13:23.276Z,88.72
2018-05-12T02:14:03.826Z,88.53
2018-05-12T02:14:44.383Z,88.43
2018-05-12T02:15:24.946Z,88.43
2018-05-12T02:16:05.517Z,88.81
2018-05-12T02:16:46.068Z,88.72
2018-05-12T02:17:26.657Z,88.91
2018-05-12T02:18:07.240Z,88.53
2018-05-12T02:18:47.815Z,88.81
2018-05-12T02:19:28.374Z,88.91
2018-05-12T02:20:08.931Z,88.34
2018-05-12T02:20:49.495Z,88.15
2018-05-12T02:21:30.075Z,88.34
2018-05-12T02:22:10.608Z,88.34
2018-05-12T02:22:51.167Z,87.76
2018-05-12T02:23:31.752Z,87.86
2018-05-12T02:24:12.326Z,87.86
2018-05-12T02:24:52.908Z,88.05
2018-05-12T02:25:33.474Z,88.05
2018-05-12T02:26:14.091Z,87.66
2018-05-12T02:26:54.663Z,87.95
2018-05-12T02:27:35.213Z,88.24
2018-05-12T02:28:15.777Z,88.43
2018-05-12T02:28:56.311Z,88.43
2018-05-12T02:29:36.878Z,88.53
2018-05-12T02:30:17.492Z,88.43
2018-05-12T02:30:57.993Z,89.01
2018-05-12T02:31:38.549Z,88.43
2018-05-12T02:32:19.086Z,89.01
2018-05-12T02:32:59.672Z,89.01
2018-05-12T02:33:40.225Z,89.01
2018-05-12T02:34:20.795Z,89.01
2018-05-12T02:35:01.348Z,89.01
2018-05-12T02:35:41.920Z,89.01
2018-05-12T02:36:22.477Z,89.01
2018-05-12T02:37:03.025Z,89.01
2018-05-12T02:37:43.583Z,89.01
2018-05-12T02:38:24.141Z,88.62
2018-05-12T02:39:04.693Z,88.72
2018-05-12T02:39:45.279Z,88.53
2018-05-12T02:40:25.847Z,88.43
2018-05-12T02:41:06.428Z,88.53
2018-05-12T02:41:47.003Z,89.01
2018-05-12T02:42:27.689Z,89.1
2018-05-12T02:43:08.335Z,89.2
2018-05-12T02:43:48.836Z,89.01
2018-05-12T02:44:29.402Z,89.1
2018-05-12T02:45:09.939Z,89.1
2018-05-12T02:45:50.500Z,89.1
2018-05-12T02:46:31.065Z,89.1
2018-05-12T02:47:11.613Z,89.48
2018-05-12T02:47:52.213Z,89.01
2018-05-12T02:48:32.773Z,89.2
2018-05-12T02:49:13.324Z,89.2
2018-05-12T02:49:53.934Z,89.2
2018-05-12T02:50:34.462Z,89.1
2018-05-12T02:51:15.025Z,89.39
2018-05-12T02:51:55.577Z,89.48
2018-05-12T02:52:36.130Z,89.1
2018-05-12T02:53:16.665Z,89.1
2018-05-12T02:53:57.254Z,89.2
2018-05-12T02:54:37.801Z,89.29
2018-05-12T02:55:18.381Z,89.39
2018-05-12T02:55:58.936Z,89.1
2018-05-12T02:56:39.484Z,89.39
2018-05-12T02:57:20.046Z,89.1
2018-05-12T02:58:00.626Z,89.2
2018-05-12T02:58:41.169Z,89.2
2018-05-12T02:59:21.733Z,89.39
2018-05-12T03:00:02.280Z,89.48
2018-05-12T03:00:42.881Z,89.01
2018-05-12T03:01:23.445Z,89.1
2018-05-12T03:02:04.007Z,89.29
2018-05-12T03:02:44.574Z,89.1
2018-05-12T03:03:25.122Z,89.87
2018-05-12T03:04:05.687Z,89.67
2018-05-12T03:04:46.263Z,89.48
2018-05-12T03:05:26.824Z,89.48
2018-05-12T03:06:07.384Z,89.48
2018-05-12T03:06:47.970Z,89.48
2018-05-12T03:07:28.559Z,89.48
2018-05-12T03:08:09.145Z,89.39
2018-05-12T03:08:49.712Z,89.58
2018-05-12T03:09:30.263Z,89.58
2018-05-12T03:10:10.817Z,89.29
2018-05-12T03:10:51.373Z,89.67
2018-05-12T03:11:31.940Z,89.58
2018-05-12T03:12:12.498Z,89.58
2018-05-12T03:12:53.064Z,89.58
2018-05-12T03:13:33.634Z,89.39
2018-05-12T03:14:14.196Z,90.16
2018-05-12T03:14:54.764Z,89.77
2018-05-12T03:15:35.322Z,90.06
2018-05-12T03:16:15.896Z,89.87
2018-05-12T03:16:56.441Z,90.16
2018-05-12T03:17:36.992Z,90.16
2018-05-12T03:18:17.569Z,90.06
2018-05-12T03:18:58.128Z,90.06
2018-05-12T03:19:38.700Z,89.96
2018-05-12T03:20:19.305Z,89.96
2018-05-12T03:20:59.860Z,90.63
2018-05-12T03:21:40.431Z,90.16
2018-05-12T03:22:21.035Z,90.53
2018-05-12T03:23:01.602Z,90.63
2018-05-12T03:23:42.161Z,90.63
2018-05-12T03:24:22.709Z,90.16
2018-05-12T03:25:03.304Z,90.53
2018-05-12T03:25:43.863Z,89.96
2018-05-12T03:26:24.425Z,90.53
2018-05-12T03:27:05.028Z,90.16
2018-05-12T03:27:45.575Z,90.06
2018-05-12T03:28:26.196Z,90.63
2018-05-12T03:29:06.748Z,90.63
2018-05-12T03:29:47.325Z,90.63
2018-05-12T03:30:27.870Z,90.53
2018-05-12T03:31:08.438Z,90.44
2018-05-12T03:31:49.001Z,90.06
2018-05-12T03:32:29.552Z,90.25
2018-05-12T03:33:10.136Z,90.34
2018-05-12T03:33:50.694Z,90.34
2018-05-12T03:34:31.283Z,90.06
2018-05-12T03:35:11.824Z,90.06
2018-05-12T03:35:52.376Z,90.73
2018-05-12T03:36:32.924Z,90.48
2018-05-12T03:37:13.485Z,90.63
2018-05-12T03:37:54.045Z,90.77
2018-05-12T03:38:34.592Z,90.73
2018-05-12T03:39:15.141Z,90.63
2018-05-12T03:39:55.713Z,90.77
2018-05-12T03:40:36.300Z,90.67
2018-05-12T03:41:16.881Z,90.48
2018-05-12T03:41:57.438Z,90.06
2018-05-12T03:42:38.005Z,90.58
2018-05-12T03:43:18.565Z,90.39
2018-05-12T03:43:59.215Z,90.39
2018-05-12T03:44:40.514Z,90.39
2018-05-12T03:45:21.393Z,89.91
2018-05-12T03:46:02.240Z,90.53
2018-05-12T03:46:43.109Z,90.39
2018-05-12T03:47:23.766Z,90.39
2018-05-12T03:48:04.354Z,90.48
2018-05-12T03:48:44.927Z,90.77
2018-05-12T03:49:25.691Z,90.48
2018-05-12T03:50:06.414Z,90.67
2018-05-12T03:50:47.034Z,90.58
2018-05-12T03:51:27.644Z,90.87
2018-05-12T03:52:08.546Z,90.48
2018-05-12T03:52:49.104Z,90.77
2018-05-12T03:53:29.755Z,90.77
2018-05-12T03:54:10.539Z,90.87
2018-05-12T03:54:51.104Z,90.58
2018-05-12T03:55:31.655Z,90.77
2018-05-12T03:56:12.201Z,90.39
2018-05-12T03:56:52.775Z,90.39
2018-05-12T03:57:33.332Z,90.58
2018-05-12T03:58:13.920Z,90.58
2018-05-12T03:58:54.750Z,90.77
2018-05-12T03:59:35.489Z,90.67
2018-05-12T04:00:16.316Z,90.67
2018-05-12T04:00:57.078Z,90.58
2018-05-12T04:01:37.913Z,90.96
2018-05-12T04:02:18.819Z,90.87
2018-05-12T04:02:59.536Z,91.25
2018-05-12T04:03:40.189Z,90.96
2018-05-12T04:04:21.352Z,91.35
2018-05-12T04:05:01.908Z,91.16
2018-05-12T04:05:42.509Z,91.25
2018-05-12T04:06:23.084Z,91.35
2018-05-12T04:07:03.671Z,90.87
2018-05-12T04:07:44.265Z,90.87
2018-05-12T04:08:24.833Z,90.96
2018-05-12T04:09:05.416Z,90.87
2018-05-12T04:09:45.969Z,90.96
2018-05-12T04:10:26.520Z,90.48
2018-05-12T04:11:07.096Z,90.87
2018-05-12T04:11:47.656Z,90.58
2018-05-12T04:12:28.205Z,90.77
2018-05-12T04:13:08.772Z,90.01
2018-05-12T04:13:49.346Z,90.48
2018-05-12T04:14:29.972Z,90.39
2018-05-12T04:15:10.532Z,90.39
2018-05-12T04:15:51.109Z,90.2
2018-05-12T04:16:31.749Z,90.67
2018-05-12T04:17:12.335Z,90.67
2018-05-12T04:17:52.891Z,90.67
2018-05-12T04:18:33.431Z,90.77
2018-05-12T04:19:13.999Z,90.77
2018-05-12T04:19:54.556Z,90.82
2018-05-12T04:20:35.096Z,90.67
2018-05-12T04:21:15.653Z,90.48
2018-05-12T04:21:56.238Z,90.39
2018-05-12T04:22:36.902Z,90.67
2018-05-12T04:23:17.451Z,90.39
2018-05-12T04:23:58.025Z,90.72
2018-05-12T04:24:38.545Z,90.58
2018-05-12T04:25:19.119Z,90.05
2018-05-12T04:25:59.721Z,90.24
2018-05-12T04:26:40.270Z,90.15
2018-05-12T04:27:20.858Z,90.05
2018-05-12T04:28:01.456Z,90.44
2018-05-12T04:28:42.030Z,90.44
2018-05-12T04:29:22.598Z,90.05
2018-05-12T04:30:03.156Z,90.53
2018-05-12T04:30:43.835Z,90.1
2018-05-12T04:31:24.271Z,90.1
2018-05-12T04:32:04.863Z,90.44
2018-05-12T04:32:45.445Z,90.34
2018-05-12T04:33:26.024Z,90.24
2018-05-12T04:34:06.604Z,90.24
2018-05-12T04:34:47.211Z,90.15
2018-05-12T04:35:27.816Z,90.53
2018-05-12T04:36:08.389Z,90.44
2018-05-12T04:36:48.958Z,90.44
2018-05-12T04:37:29.535Z,90.24
2018-05-12T04:38:10.120Z,90.44
2018-05-12T04:38:50.701Z,90.72
2018-05-12T04:39:31.323Z,90.82
2018-05-12T04:40:11.902Z,90.72
2018-05-12T04:40:52.451Z,90.63
2018-05-12T04:41:33.004Z,90.44
2018-05-12T04:42:13.626Z,90.44
2018-05-12T04:42:54.197Z,90.72
2018-05-12T04:43:34.767Z,90.72
2018-05-12T04:44:15.376Z,90.53
2018-05-12T04:44:55.996Z,90.72
2018-05-12T04:45:36.548Z,90.82
2018-05-12T04:46:17.158Z,90.63
2018-05-12T04:46:57.715Z,90.44
2018-05-12T04:47:39.467Z,90.53
2018-05-12T04:48:21.123Z,90.82
2018-05-12T04:49:01.715Z,90.72
2018-05-12T04:49:42.262Z,90.72
2018-05-12T04:50:22.824Z,90.53
2018-05-12T04:51:03.398Z,90.53
2018-05-12T04:51:43.972Z,90.44
2018-05-12T04:52:24.539Z,90.44
2018-05-12T04:53:05.109Z,90.24
2018-05-12T04:53:45.693Z,90.44
2018-05-12T04:54:26.247Z,90.34
2018-05-12T04:55:06.822Z,90.44
2018-05-12T04:55:47.376Z,90.34
2018-05-12T04:56:27.969Z,90.15
2018-05-12T04:57:08.534Z,90.15
2018-05-12T04:57:49.088Z,90.44
2018-05-12T04:58:29.661Z,90.58
2018-05-12T04:59:10.211Z,90.44
2018-05-12T04:59:50.781Z,90.48
2018-05-12T05:00:31.348Z,90.48
2018-05-12T05:01:11.924Z,90.44
2018-05-12T05:01:52.497Z,90.34
2018-05-12T05:02:33.053Z,90.67
2018-05-12T05:03:13.611Z,90.34
2018-05-12T05:03:54.162Z,90.72
2018-05-12T05:04:34.733Z,90.39
2018-05-12T05:05:15.302Z,90.53
2018-05-12T05:05:55.887Z,90.44
2018-05-12T05:06:36.492Z,90.19
2018-05-12T05:07:17.059Z,90.29
2018-05-12T05:07:57.619Z,90.29
2018-05-12T05:08:38.186Z,90.19
2018-05-12T05:09:18.751Z,90.48
2018-05-12T05:09:59.311Z,90.67
2018-05-12T05:10:39.873Z,90.44
2018-05-12T05:11:20.431Z,90.48
2018-05-12T05:12:00.986Z,90.67
2018-05-12T05:12:41.548Z,90.67
2018-05-12T05:13:22.112Z,90.67
2018-05-12T05:14:02.747Z,90.67
2018-05-12T05:14:43.295Z,90.29
2018-05-12T05:15:23.929Z,90.39
2018-05-12T05:16:04.408Z,90.48
2018-05-12T05:16:44.975Z,90.67
2018-05-12T05:17:25.557Z,90.19
2018-05-12T05:18:06.183Z,90.34
2018-05-12T05:18:46.756Z,90.77
2018-05-12T05:19:27.321Z,90.29
2018-05-12T05:20:08.007Z,90.39
2018-05-12T05:20:49.435Z,90.48
2018-05-12T05:21:30.334Z,90.39
2018-05-12T05:22:10.887Z,90.48
2018-05-12T05:22:51.441Z,90.48
2018-05-12T05:23:32.109Z,90.29
2018-05-12T05:24:12.679Z,90.48
2018-05-12T05:24:53.354Z,90.48
2018-05-12T05:25:33.940Z,90.29
2018-05-12T05:26:14.521Z,90.58
2018-05-12T05:26:55.087Z,90.09
2018-05-12T05:27:35.678Z,90.67
2018-05-12T05:28:16.233Z,90.29
2018-05-12T05:28:56.821Z,90.39
2018-05-12T05:29:37.359Z,90.77
2018-05-12T05:30:17.938Z,90.48
2018-05-12T05:30:58.483Z,90.19
2018-05-12T05:31:39.051Z,90
2018-05-12T05:32:19.619Z,90
2018-05-12T05:33:00.178Z,90
2018-05-12T05:33:40.738Z,90.19
2018-05-12T05:34:21.314Z,89.57
2018-05-12T05:35:01.870Z,89.57
2018-05-12T05:35:42.448Z,89.57
2018-05-12T05:36:23.011Z,89.57
2018-05-12T05:37:03.576Z,89.09
2018-05-12T05:37:44.122Z,88.99
2018-05-12T05:38:24.679Z,88.32
2018-05-12T05:39:05.235Z,88.32
2018-05-12T05:39:45.783Z,87.41
2018-05-12T05:40:26.341Z,87.5
2018-05-12T05:41:06.939Z,87.79
2018-05-12T05:41:47.511Z,87.41
2018-05-12T05:42:28.073Z,87.41
2018-05-12T05:43:08.647Z,85.97
2018-05-12T05:43:49.215Z,85.68
2018-05-12T05:44:29.800Z,85.97
2018-05-12T05:45:10.376Z,85.88
2018-05-12T05:45:50.943Z,86.01
2018-05-12T05:46:31.504Z,85.72
2018-05-12T05:47:12.068Z,85.15
2018-05-12T05:47:52.635Z,84.95
2018-05-12T05:48:33.186Z,84.67
2018-05-12T05:49:13.766Z,84.81
2018-05-12T05:49:54.398Z,84.09
2018-05-12T05:50:34.902Z,83.94
2018-05-12T05:51:15.469Z,82.98
2018-05-12T05:51:56.034Z,83.08
2018-05-12T05:52:36.617Z,82.79
2018-05-12T05:53:17.195Z,82.89
2018-05-12T05:53:57.757Z,82.51
2018-05-12T05:54:38.344Z,83.08
2018-05-12T05:55:18.920Z,83.12
2018-05-12T05:55:59.489Z,82.26
2018-05-12T05:56:40.061Z,81.78
2018-05-12T05:57:20.638Z,81.68
2018-05-12T05:58:01.192Z,81.49
2018-05-12T05:58:41.776Z,81.01
2018-05-12T05:59:22.358Z,80.82
2018-05-12T06:00:02.918Z,80.43
2018-05-12T06:00:43.486Z,79.9
2018-05-12T06:01:24.049Z,80.09
2018-05-12T06:02:04.605Z,79.9
2018-05-12T06:02:45.178Z,79.99
2018-05-12T06:03:25.743Z,79.03
2018-05-12T06:04:06.309Z,79.13
2018-05-12T06:04:46.901Z,79.13
2018-05-12T06:05:27.459Z,78.36
2018-05-12T06:06:08.052Z,78.27
2018-05-12T06:06:48.693Z,77.5
2018-05-12T06:07:29.189Z,77.63
2018-05-12T06:08:09.759Z,76.86
2018-05-12T06:08:50.330Z,76.67
2018-05-12T06:09:30.890Z,76.77
2018-05-12T06:10:11.459Z,76
2018-05-12T06:10:52.035Z,75.81
2018-05-12T06:11:32.602Z,75.62
2018-05-12T06:12:13.160Z,75.52
2018-05-12T06:12:53.733Z,75.04
2018-05-12T06:13:34.320Z,75.32
2018-05-12T06:14:14.896Z,74.98
2018-05-12T06:14:55.487Z,74.94
2018-05-12T06:15:36.036Z,74.5
2018-05-12T06:16:16.608Z,74.21
2018-05-12T06:16:57.160Z,74.4
2018-05-12T06:17:37.746Z,74.11
2018-05-12T06:18:18.320Z,74.02
2018-05-12T06:18:58.880Z,74.02
2018-05-12T06:19:39.454Z,73.92
2018-05-12T06:20:20.033Z,73.92
2018-05-12T06:21:00.591Z,73.54
2018-05-12T06:21:41.148Z,73.92
2018-05-12T06:22:21.722Z,73.92
2018-05-12T06:23:02.284Z,73.98
2018-05-12T06:23:42.856Z,73.79
2018-05-12T06:24:23.421Z,74.17
2018-05-12T06:25:03.998Z,74.11
2018-05-12T06:25:44.561Z,73.92
2018-05-12T06:26:25.133Z,74.79
2018-05-12T06:27:05.702Z,74.17
2018-05-12T06:27:46.325Z,73.73
2018-05-12T06:28:26.846Z,73.54
2018-05-12T06:29:07.423Z,73.54
2018-05-12T06:29:47.985Z,72.96
2018-05-12T06:30:28.562Z,73.06
2018-05-12T06:31:09.136Z,73.11
2018-05-12T06:31:49.711Z,72.77
2018-05-12T06:32:30.278Z,73.02
2018-05-12T06:33:10.849Z,73.44
2018-05-12T06:33:51.438Z,73.02
2018-05-12T06:34:32.006Z,72.83
2018-05-12T06:35:12.587Z,72.92
2018-05-12T06:35:53.151Z,73.25
2018-05-12T06:36:33.716Z,73.44
2018-05-12T06:37:14.302Z,73.15
2018-05-12T06:37:54.877Z,73.15
2018-05-12T06:38:35.444Z,73.06
2018-05-12T06:39:16.000Z,73.06
2018-05-12T06:39:56.552Z,73.25
2018-05-12T06:40:37.121Z,73.35
2018-05-12T06:41:17.686Z,72.77
2018-05-12T06:41:58.284Z,72.77
2018-05-12T06:42:38.849Z,72.86
2018-05-12T06:43:19.452Z,72.58
2018-05-12T06:44:00.009Z,72.77
2018-05-12T06:44:40.586Z,72.96
2018-05-12T06:45:21.197Z,73.06
2018-05-12T06:46:01.784Z,72.96
2018-05-12T06:46:42.360Z,73.25
2018-05-12T06:47:22.918Z,73.06
2018-05-12T06:48:03.486Z,73.15
2018-05-12T06:48:44.055Z,73.06
2018-05-12T06:49:24.615Z,73.44
2018-05-12T06:50:05.190Z,73.15
2018-05-12T06:50:45.750Z,72.96
2018-05-12T06:51:26.329Z,73.54
2018-05-12T06:52:06.886Z,73.25
2018-05-12T06:52:47.523Z,72.96
2018-05-12T06:53:28.023Z,73.25
2018-05-12T06:54:08.594Z,73.06
2018-05-12T06:54:49.187Z,72.67
2018-05-12T06:55:29.829Z,72.58
2018-05-12T06:56:10.410Z,72.86
2018-05-12T06:56:50.974Z,73.06
2018-05-12T06:57:31.553Z,72.13
2018-05-12T06:58:12.131Z,72.23
2018-05-12T06:58:52.699Z,71.94
2018-05-12T06:59:33.249Z,71.65
2018-05-12T07:00:13.835Z,71.55
2018-05-12T07:00:54.425Z,71.36
2018-05-12T07:01:34.974Z,71.36
2018-05-12T07:02:15.541Z,71.26
2018-05-12T07:02:56.102Z,71.08
2018-05-12T07:03:36.653Z,71.46
2018-05-12T07:04:17.244Z,71.08
2018-05-12T07:04:57.801Z,70.65
2018-05-12T07:05:38.362Z,70.94
2018-05-12T07:06:18.935Z,71.04
2018-05-12T07:06:59.514Z,71.42
2018-05-12T07:07:40.154Z,71.61
2018-05-12T07:08:20.721Z,71.61
2018-05-12T07:09:01.293Z,71.33
2018-05-12T07:09:41.868Z,71.52
2018-05-12T07:10:22.439Z,71.42
2018-05-12T07:11:03.004Z,71.52
2018-05-12T07:11:43.586Z,71.33
2018-05-12T07:12:24.265Z,70.84
2018-05-12T07:13:04.816Z,70.65
2018-05-12T07:13:45.383Z,71.42
2018-05-12T07:14:25.944Z,71.52
2018-05-12T07:15:07.334Z,70.75
2018-05-12T07:15:47.898Z,71.04
2018-05-12T07:16:28.458Z,70.65
2018-05-12T07:17:09.049Z,70.46
2018-05-12T07:17:49.621Z,70.01
2018-05-12T07:18:30.188Z,70.3
2018-05-12T07:19:10.758Z,70.5
2018-05-12T07:19:51.335Z,70.4
2018-05-12T07:20:31.940Z,69.47
2018-05-12T07:21:12.500Z,68.32
2018-05-12T07:21:53.529Z,66.97
2018-05-12T07:22:34.100Z,66.88
2018-05-12T07:23:14.666Z,66.39
2018-05-12T07:23:55.223Z,66.68
2018-05-12T07:24:35.765Z,66.58
2018-05-12T07:25:16.337Z,66.2
2018-05-12T07:25:56.909Z,65.33
2018-05-12T07:26:37.468Z,64.76
2018-05-12T07:27:18.064Z,64.95
2018-05-12T07:27:58.644Z,65.24
2018-05-12T07:28:39.212Z,66.2
2018-05-12T07:29:19.794Z,66.1
2018-05-12T07:30:00.360Z,65.05
2018-05-12T07:30:40.967Z,64.59
2018-05-12T07:31:21.541Z,63.92
2018-05-12T07:32:02.116Z,63.54
2018-05-12T07:32:42.684Z,64.02
2018-05-12T07:33:23.247Z,64.43
2018-05-12T07:34:03.838Z,64.53
2018-05-12T07:34:44.389Z,63.47
2018-05-12T07:35:24.971Z,62.6
2018-05-12T07:36:05.550Z,61.55
2018-05-12T07:36:46.117Z,61.65
2018-05-12T07:37:26.693Z,61.45
2018-05-12T07:38:07.276Z,62.03
2018-05-12T07:38:47.859Z,62.57
2018-05-12T07:39:28.509Z,62.57
2018-05-12T07:40:09.088Z,62.09
2018-05-12T07:40:49.662Z,62
2018-05-12T07:41:30.229Z,62.35
2018-05-12T07:42:10.809Z,62.64
2018-05-12T07:42:51.391Z,63.51
2018-05-12T07:43:31.938Z,63.22
2018-05-12T07:44:12.528Z,63.7
2018-05-12T07:44:53.122Z,63.31
2018-05-12T07:45:33.753Z,63.41
2018-05-12T07:46:14.252Z,64.15
2018-05-12T07:46:54.818Z,64.05
2018-05-12T07:47:35.467Z,64.05
2018-05-12T07:48:16.069Z,64.63
2018-05-12T07:48:56.619Z,64.34
2018-05-12T07:49:37.211Z,64.82
2018-05-12T07:50:17.783Z,65.3
2018-05-12T07:50:58.343Z,65.17
2018-05-12T07:51:39.004Z,65.27
2018-05-12T07:52:19.487Z,65.46
2018-05-12T07:53:00.068Z,66.23
2018-05-12T07:53:40.655Z,66.27
2018-05-12T07:54:21.240Z,66.14
2018-05-12T07:55:01.850Z,66.36
2018-05-12T07:55:42.410Z,65.97
2018-05-12T07:56:23.149Z,65.4
2018-05-12T07:57:03.773Z,65.97
2018-05-12T07:57:44.505Z,65.4
2018-05-12T07:58:25.067Z,65.01
2018-05-12T07:59:05.627Z,65.11
2018-05-12T07:59:46.229Z,65.2
2018-05-12T08:00:26.803Z,65.2
2018-05-12T08:01:07.364Z,65.2
2018-05-12T08:01:47.932Z,65.2
2018-05-12T08:02:28.500Z,65.01
2018-05-12T08:03:09.078Z,65.3
2018-05-12T08:03:49.670Z,65.78
2018-05-12T08:04:30.230Z,65.3
2018-05-12T08:05:10.808Z,65.2
2018-05-12T08:05:51.371Z,65.11
2018-05-12T08:06:31.969Z,64.92
2018-05-12T08:07:12.542Z,64.82
2018-05-12T08:07:53.117Z,64.73
2018-05-12T08:08:33.680Z,64.53
2018-05-12T08:09:14.270Z,64.63
2018-05-12T08:09:54.829Z,63.95
2018-05-12T08:10:35.400Z,64.34
2018-05-12T08:11:15.965Z,64.53
2018-05-12T08:11:56.535Z,64.53
2018-05-12T08:12:37.109Z,64.73
2018-05-12T08:13:17.696Z,65.01
2018-05-12T08:13:58.256Z,64.92
2018-05-12T08:14:38.812Z,65.11
2018-05-12T08:15:19.380Z,65.2
2018-05-12T08:15:59.934Z,65.3
2018-05-12T08:16:40.481Z,64.82
2018-05-12T08:17:21.051Z,64.73
2018-05-12T08:18:01.608Z,64.66
2018-05-12T08:18:42.254Z,64.47
2018-05-12T08:19:22.812Z,64.76
2018-05-12T08:20:03.419Z,64.08
2018-05-12T08:20:43.989Z,64.63
2018-05-12T08:21:24.539Z,64.25
2018-05-12T08:22:05.107Z,63.51
2018-05-12T08:22:45.695Z,63.79
2018-05-12T08:23:26.265Z,63.48
2018-05-12T08:24:06.839Z,63.76
2018-05-12T08:24:47.413Z,64.63
2018-05-12T08:25:27.987Z,64.82
2018-05-12T08:26:08.663Z,64.53
2018-05-12T08:26:49.402Z,64.63
2018-05-12T08:27:29.925Z,64.25
2018-05-12T08:28:10.513Z,64.73
2018-05-12T08:28:51.188Z,63.95
2018-05-12T08:29:31.756Z,64.63
2018-05-12T08:30:12.452Z,64.25
2018-05-12T08:30:53.439Z,64.25
2018-05-12T08:31:34.026Z,64.53
2018-05-12T08:32:14.596Z,64.15
2018-05-12T08:32:55.151Z,64.56
2018-05-12T08:33:35.749Z,64.47
2018-05-12T08:34:16.971Z,64.66
2018-05-12T08:34:57.588Z,64.18
2018-05-12T08:35:38.153Z,63.41
2018-05-12T08:36:18.708Z,63.41
2018-05-12T08:36:59.350Z,64.5
2018-05-12T08:37:39.889Z,64.31
2018-05-12T08:38:20.494Z,62.87
2018-05-12T08:39:01.030Z,62.48
2018-05-12T08:39:41.634Z,62.38
2018-05-12T08:40:22.227Z,62.87
2018-05-12T08:41:02.790Z,63.25
2018-05-12T08:41:43.404Z,62.96
2018-05-12T08:42:23.968Z,62.48
2018-05-12T08:43:04.510Z,62.19
2018-05-12T08:43:45.070Z,62.38